sensor_id;sensor_type;location;lat;lon;timestamp;temperature;humidity
68139;DHT22;54940;50.842;4.410;2023-11-18T00:00:51;7.80;99.90
68139;DHT22;54940;50.842;4.410;2023-11-18T00:03:16;7.80;99.90
68139;DHT22;54940;50.842;4.410;2023-11-18T00:05:42;7.70;99.90
68139;DHT22;54940;50.842;4.410;2023-11-18T00:08:10;7.80;99.90
68139;DHT22;54940;50.842;4.410;2023-11-18T00:10:36;7.80;99.90
68139;DHT22;54940;50.842;4.410;2023-11-18T00:13:02;7.80;99.90
68139;DHT22;54940;50.842;4.410;2023-11-18T00:15:29;7.80;99.90
68139;DHT22;54940;50.842;4.410;2023-11-18T00:17:54;7.80;99.90
68139;DHT22;54940;50.842;4.410;2023-11-18T00:20:20;7.80;99.90
68139;DHT22;54940;50.842;4.410;2023-11-18T00:22:46;7.80;99.90
68139;DHT22;54940;50.842;4.410;2023-11-18T00:25:12;7.70;99.90
68139;DHT22;54940;50.842;4.410;2023-11-18T00:27:39;7.70;99.90
68139;DHT22;54940;50.842;4.410;2023-11-18T00:30:06;7.80;99.90
68139;DHT22;54940;50.842;4.410;2023-11-18T00:32:38;7.80;99.90
68139;DHT22;54940;50.842;4.410;2023-11-18T00:35:04;7.80;99.90
68139;DHT22;54940;50.842;4.410;2023-11-18T00:37:33;7.80;99.90
68139;DHT22;54940;50.842;4.410;2023-11-18T00:39:59;7.70;99.90
68139;DHT22;54940;50.842;4.410;2023-11-18T00:42:25;7.70;99.90
68139;DHT22;54940;50.842;4.410;2023-11-18T00:44:50;7.70;99.90
68139;DHT22;54940;50.842;4.410;2023-11-18T00:47:16;7.70;99.90
68139;DHT22;54940;50.842;4.410;2023-11-18T00:49:42;7.70;99.90
68139;DHT22;54940;50.842;4.410;2023-11-18T00:52:08;7.70;99.90
68139;DHT22;54940;50.842;4.410;2023-11-18T00:54:34;7.70;99.90
68139;DHT22;54940;50.842;4.410;2023-11-18T00:57:01;7.70;99.90
68139;DHT22;54940;50.842;4.410;2023-11-18T00:59:27;7.60;99.90
68139;DHT22;54940;50.842;4.410;2023-11-18T01:01:53;7.70;99.90
68139;DHT22;54940;50.842;4.410;2023-11-18T01:04:18;7.70;99.90
68139;DHT22;54940;50.842;4.410;2023-11-18T01:06:45;7.70;99.90
68139;DHT22;54940;50.842;4.410;2023-11-18T01:09:11;7.70;99.90
68139;DHT22;54940;50.842;4.410;2023-11-18T01:11:37;7.70;99.90
68139;DHT22;54940;50.842;4.410;2023-11-18T01:14:03;7.70;99.90
68139;DHT22;54940;50.842;4.410;2023-11-18T01:16:28;7.70;99.90
68139;DHT22;54940;50.842;4.410;2023-11-18T01:18:54;7.70;99.90
68139;DHT22;54940;50.842;4.410;2023-11-18T01:21:20;7.70;99.90
68139;DHT22;54940;50.842;4.410;2023-11-18T01:23:47;7.70;99.90
68139;DHT22;54940;50.842;4.410;2023-11-18T01:26:14;7.70;99.90
68139;DHT22;54940;50.842;4.410;2023-11-18T01:28:40;7.70;99.90
68139;DHT22;54940;50.842;4.410;2023-11-18T01:31:10;7.80;99.90
68139;DHT22;54940;50.842;4.410;2023-11-18T01:33:37;7.70;99.90
68139;DHT22;54940;50.842;4.410;2023-11-18T01:36:07;7.80;99.90
68139;DHT22;54940;50.842;4.410;2023-11-18T01:38:41;7.80;99.90
68139;DHT22;54940;50.842;4.410;2023-11-18T01:41:07;7.80;99.90
68139;DHT22;54940;50.842;4.410;2023-11-18T01:43:34;7.80;99.90
68139;DHT22;54940;50.842;4.410;2023-11-18T01:46:07;7.90;99.90
68139;DHT22;54940;50.842;4.410;2023-11-18T01:48:36;7.80;99.90
68139;DHT22;54940;50.842;4.410;2023-11-18T01:51:05;7.90;99.90
68139;DHT22;54940;50.842;4.410;2023-11-18T01:53:32;7.80;99.90
68139;DHT22;54940;50.842;4.410;2023-11-18T01:56:00;7.90;99.90
68139;DHT22;54940;50.842;4.410;2023-11-18T01:58:26;7.90;99.90
68139;DHT22;54940;50.842;4.410;2023-11-18T02:00:53;7.90;99.90
68139;DHT22;54940;50.842;4.410;2023-11-18T02:03:18;7.90;99.90
68139;DHT22;54940;50.842;4.410;2023-11-18T02:05:45;8.00;99.90
68139;DHT22;54940;50.842;4.410;2023-11-18T02:08:11;8.00;99.90
68139;DHT22;54940;50.842;4.410;2023-11-18T02:10:47;7.90;99.90
68139;DHT22;54940;50.842;4.410;2023-11-18T02:13:23;7.90;99.90
68139;DHT22;54940;50.842;4.410;2023-11-18T02:15:56;7.90;99.90
68139;DHT22;54940;50.842;4.410;2023-11-18T02:18:25;7.90;99.90
68139;DHT22;54940;50.842;4.410;2023-11-18T02:20:53;7.90;99.90
68139;DHT22;54940;50.842;4.410;2023-11-18T02:23:20;7.80;99.90
68139;DHT22;54940;50.842;4.410;2023-11-18T02:25:48;7.90;99.90
68139;DHT22;54940;50.842;4.410;2023-11-18T02:28:14;7.90;99.90
68139;DHT22;54940;50.842;4.410;2023-11-18T02:30:41;7.90;99.90
68139;DHT22;54940;50.842;4.410;2023-11-18T02:35:52;7.90;99.90
68139;DHT22;54940;50.842;4.410;2023-11-18T02:38:24;7.90;99.90
68139;DHT22;54940;50.842;4.410;2023-11-18T02:40:52;7.80;99.90
68139;DHT22;54940;50.842;4.410;2023-11-18T02:43:22;7.70;99.90
68139;DHT22;54940;50.842;4.410;2023-11-18T02:45:49;7.80;99.90
68139;DHT22;54940;50.842;4.410;2023-11-18T02:48:17;7.80;99.90
68139;DHT22;54940;50.842;4.410;2023-11-18T02:50:43;7.80;99.90
68139;DHT22;54940;50.842;4.410;2023-11-18T02:53:09;7.90;99.90
68139;DHT22;54940;50.842;4.410;2023-11-18T02:55:35;7.80;99.90
68139;DHT22;54940;50.842;4.410;2023-11-18T02:58:01;7.80;99.90
68139;DHT22;54940;50.842;4.410;2023-11-18T03:00:27;7.70;99.90
68139;DHT22;54940;50.842;4.410;2023-11-18T03:02:54;7.70;99.90
68139;DHT22;54940;50.842;4.410;2023-11-18T03:05:20;7.80;99.90
68139;DHT22;54940;50.842;4.410;2023-11-18T03:07:48;7.80;99.90
68139;DHT22;54940;50.842;4.410;2023-11-18T03:10:20;7.70;99.90
68139;DHT22;54940;50.842;4.410;2023-11-18T03:12:51;7.70;99.90
68139;DHT22;54940;50.842;4.410;2023-11-18T03:15:18;7.80;99.90
68139;DHT22;54940;50.842;4.410;2023-11-18T03:17:48;7.70;99.90
68139;DHT22;54940;50.842;4.410;2023-11-18T03:20:15;7.70;99.90
68139;DHT22;54940;50.842;4.410;2023-11-18T03:22:46;7.70;99.90
68139;DHT22;54940;50.842;4.410;2023-11-18T03:25:12;7.70;99.90
68139;DHT22;54940;50.842;4.410;2023-11-18T03:27:38;7.80;99.90
68139;DHT22;54940;50.842;4.410;2023-11-18T03:30:05;7.80;99.90
68139;DHT22;54940;50.842;4.410;2023-11-18T03:32:32;7.80;99.90
68139;DHT22;54940;50.842;4.410;2023-11-18T03:35:01;7.90;99.90
68139;DHT22;54940;50.842;4.410;2023-11-18T03:37:27;7.90;99.90
68139;DHT22;54940;50.842;4.410;2023-11-18T03:39:53;7.90;99.90
68139;DHT22;54940;50.842;4.410;2023-11-18T03:42:21;7.90;99.90
68139;DHT22;54940;50.842;4.410;2023-11-18T03:44:49;7.90;99.90
68139;DHT22;54940;50.842;4.410;2023-11-18T03:47:15;7.90;99.90
68139;DHT22;54940;50.842;4.410;2023-11-18T03:49:41;8.00;99.90
68139;DHT22;54940;50.842;4.410;2023-11-18T03:52:07;7.90;99.90
68139;DHT22;54940;50.842;4.410;2023-11-18T03:54:32;8.00;99.90
68139;DHT22;54940;50.842;4.410;2023-11-18T03:56:58;7.90;99.90
68139;DHT22;54940;50.842;4.410;2023-11-18T03:59:25;8.00;99.90
68139;DHT22;54940;50.842;4.410;2023-11-18T04:01:51;7.90;99.90
68139;DHT22;54940;50.842;4.410;2023-11-18T04:04:21;8.00;99.90
68139;DHT22;54940;50.842;4.410;2023-11-18T04:06:46;8.00;99.90
68139;DHT22;54940;50.842;4.410;2023-11-18T04:09:12;8.00;99.90
68139;DHT22;54940;50.842;4.410;2023-11-18T04:11:40;8.00;99.90
68139;DHT22;54940;50.842;4.410;2023-11-18T04:14:10;7.90;99.90
68139;DHT22;54940;50.842;4.410;2023-11-18T04:16:36;7.90;99.90
68139;DHT22;54940;50.842;4.410;2023-11-18T04:19:03;7.90;99.90
68139;DHT22;54940;50.842;4.410;2023-11-18T04:21:29;7.90;99.90
68139;DHT22;54940;50.842;4.410;2023-11-18T04:23:55;8.00;99.90
68139;DHT22;54940;50.842;4.410;2023-11-18T04:26:20;8.00;99.90
68139;DHT22;54940;50.842;4.410;2023-11-18T04:28:46;8.00;99.90
68139;DHT22;54940;50.842;4.410;2023-11-18T04:31:14;8.10;99.90
68139;DHT22;54940;50.842;4.410;2023-11-18T04:33:40;8.10;99.90
68139;DHT22;54940;50.842;4.410;2023-11-18T04:36:07;8.00;99.90
68139;DHT22;54940;50.842;4.410;2023-11-18T04:38:35;8.00;99.90
68139;DHT22;54940;50.842;4.410;2023-11-18T04:41:01;8.00;99.90
68139;DHT22;54940;50.842;4.410;2023-11-18T04:43:31;7.90;99.90
68139;DHT22;54940;50.842;4.410;2023-11-18T04:45:57;8.00;99.90
68139;DHT22;54940;50.842;4.410;2023-11-18T04:48:23;8.00;99.90
68139;DHT22;54940;50.842;4.410;2023-11-18T04:50:49;8.00;99.90
68139;DHT22;54940;50.842;4.410;2023-11-18T04:53:14;8.00;99.90
68139;DHT22;54940;50.842;4.410;2023-11-18T04:55:40;8.00;99.90
68139;DHT22;54940;50.842;4.410;2023-11-18T04:58:08;8.10;99.90
68139;DHT22;54940;50.842;4.410;2023-11-18T05:00:39;8.00;99.90
68139;DHT22;54940;50.842;4.410;2023-11-18T05:03:05;8.10;99.90
68139;DHT22;54940;50.842;4.410;2023-11-18T05:05:37;8.10;99.90
68139;DHT22;54940;50.842;4.410;2023-11-18T05:08:04;8.10;99.90
68139;DHT22;54940;50.842;4.410;2023-11-18T05:10:35;8.10;99.90
68139;DHT22;54940;50.842;4.410;2023-11-18T05:13:02;8.10;99.90
68139;DHT22;54940;50.842;4.410;2023-11-18T05:15:27;8.10;99.90
68139;DHT22;54940;50.842;4.410;2023-11-18T05:17:55;8.10;99.90
68139;DHT22;54940;50.842;4.410;2023-11-18T05:20:21;8.10;99.90
68139;DHT22;54940;50.842;4.410;2023-11-18T05:22:47;8.20;99.90
68139;DHT22;54940;50.842;4.410;2023-11-18T05:25:13;8.20;99.90
68139;DHT22;54940;50.842;4.410;2023-11-18T05:27:39;8.10;99.90
68139;DHT22;54940;50.842;4.410;2023-11-18T05:30:07;8.10;99.90
68139;DHT22;54940;50.842;4.410;2023-11-18T05:32:33;8.20;99.90
68139;DHT22;54940;50.842;4.410;2023-11-18T05:34:59;8.20;99.90
68139;DHT22;54940;50.842;4.410;2023-11-18T05:37:26;8.20;99.90
68139;DHT22;54940;50.842;4.410;2023-11-18T05:39:54;8.10;99.90
68139;DHT22;54940;50.842;4.410;2023-11-18T05:42:27;8.10;99.90
68139;DHT22;54940;50.842;4.410;2023-11-18T05:44:53;8.20;99.90
68139;DHT22;54940;50.842;4.410;2023-11-18T05:47:25;8.20;99.90
68139;DHT22;54940;50.842;4.410;2023-11-18T05:49:52;8.10;99.90
68139;DHT22;54940;50.842;4.410;2023-11-18T05:52:17;8.10;99.90
68139;DHT22;54940;50.842;4.410;2023-11-18T05:54:44;8.10;99.90
68139;DHT22;54940;50.842;4.410;2023-11-18T05:57:09;8.10;99.90
68139;DHT22;54940;50.842;4.410;2023-11-18T05:59:35;8.10;99.90
68139;DHT22;54940;50.842;4.410;2023-11-18T06:02:01;8.20;99.90
68139;DHT22;54940;50.842;4.410;2023-11-18T06:04:29;8.20;99.90
68139;DHT22;54940;50.842;4.410;2023-11-18T06:06:55;8.20;99.90
68139;DHT22;54940;50.842;4.410;2023-11-18T06:09:20;8.30;99.90
68139;DHT22;54940;50.842;4.410;2023-11-18T06:11:47;8.30;99.90
68139;DHT22;54940;50.842;4.410;2023-11-18T06:14:14;8.30;99.90
68139;DHT22;54940;50.842;4.410;2023-11-18T06:16:40;8.20;99.90
68139;DHT22;54940;50.842;4.410;2023-11-18T06:19:06;8.20;99.90
68139;DHT22;54940;50.842;4.410;2023-11-18T06:21:32;8.30;99.90
68139;DHT22;54940;50.842;4.410;2023-11-18T06:23:59;8.30;99.90
68139;DHT22;54940;50.842;4.410;2023-11-18T06:26:25;8.30;99.90
68139;DHT22;54940;50.842;4.410;2023-11-18T06:28:53;8.30;99.90
68139;DHT22;54940;50.842;4.410;2023-11-18T06:31:20;8.40;99.90
68139;DHT22;54940;50.842;4.410;2023-11-18T06:33:46;8.30;99.90
68139;DHT22;54940;50.842;4.410;2023-11-18T06:38:51;8.30;99.90
68139;DHT22;54940;50.842;4.410;2023-11-18T06:41:21;8.40;99.90
68139;DHT22;54940;50.842;4.410;2023-11-18T06:43:49;8.40;99.90
68139;DHT22;54940;50.842;4.410;2023-11-18T06:46:32;8.40;99.90
68139;DHT22;54940;50.842;4.410;2023-11-18T06:49:00;8.40;99.90
68139;DHT22;54940;50.842;4.410;2023-11-18T06:51:30;8.40;99.90
68139;DHT22;54940;50.842;4.410;2023-11-18T06:53:57;8.50;99.90
68139;DHT22;54940;50.842;4.410;2023-11-18T06:56:27;8.50;99.90
68139;DHT22;54940;50.842;4.410;2023-11-18T06:58:53;8.50;99.90
68139;DHT22;54940;50.842;4.410;2023-11-18T07:01:19;8.50;99.90
68139;DHT22;54940;50.842;4.410;2023-11-18T07:03:46;8.60;99.90
68139;DHT22;54940;50.842;4.410;2023-11-18T07:06:16;8.60;99.90
68139;DHT22;54940;50.842;4.410;2023-11-18T07:08:48;8.70;99.90
68139;DHT22;54940;50.842;4.410;2023-11-18T07:11:15;8.60;99.90
68139;DHT22;54940;50.842;4.410;2023-11-18T07:13:40;8.60;99.90
68139;DHT22;54940;50.842;4.410;2023-11-18T07:16:07;8.60;99.90
68139;DHT22;54940;50.842;4.410;2023-11-18T07:18:35;8.60;99.90
68139;DHT22;54940;50.842;4.410;2023-11-18T07:21:04;8.60;99.90
68139;DHT22;54940;50.842;4.410;2023-11-18T07:23:33;8.50;99.90
68139;DHT22;54940;50.842;4.410;2023-11-18T07:26:00;8.60;99.90
68139;DHT22;54940;50.842;4.410;2023-11-18T07:28:26;8.60;99.90
68139;DHT22;54940;50.842;4.410;2023-11-18T07:30:53;8.60;99.90
68139;DHT22;54940;50.842;4.410;2023-11-18T07:33:19;8.50;99.90
68139;DHT22;54940;50.842;4.410;2023-11-18T07:35:46;8.50;99.90
68139;DHT22;54940;50.842;4.410;2023-11-18T07:38:12;8.60;99.90
68139;DHT22;54940;50.842;4.410;2023-11-18T07:40:38;8.60;99.90
68139;DHT22;54940;50.842;4.410;2023-11-18T07:43:12;8.60;99.90
68139;DHT22;54940;50.842;4.410;2023-11-18T07:45:39;8.60;99.90
68139;DHT22;54940;50.842;4.410;2023-11-18T07:48:08;8.60;99.90
68139;DHT22;54940;50.842;4.410;2023-11-18T07:50:38;8.60;99.90
68139;DHT22;54940;50.842;4.410;2023-11-18T07:53:05;8.50;99.90
68139;DHT22;54940;50.842;4.410;2023-11-18T07:55:32;8.50;99.90
68139;DHT22;54940;50.842;4.410;2023-11-18T07:58:03;8.50;99.90
68139;DHT22;54940;50.842;4.410;2023-11-18T08:00:29;8.50;99.90
68139;DHT22;54940;50.842;4.410;2023-11-18T08:02:58;8.60;99.90
68139;DHT22;54940;50.842;4.410;2023-11-18T08:05:26;8.60;99.90
68139;DHT22;54940;50.842;4.410;2023-11-18T08:07:53;8.50;99.90
68139;DHT22;54940;50.842;4.410;2023-11-18T08:10:22;8.60;99.90
68139;DHT22;54940;50.842;4.410;2023-11-18T08:12:48;8.60;99.90
68139;DHT22;54940;50.842;4.410;2023-11-18T08:15:13;8.60;99.90
68139;DHT22;54940;50.842;4.410;2023-11-18T08:17:39;8.60;99.90
68139;DHT22;54940;50.842;4.410;2023-11-18T08:20:08;8.60;99.90
68139;DHT22;54940;50.842;4.410;2023-11-18T08:22:45;8.60;99.90
68139;DHT22;54940;50.842;4.410;2023-11-18T08:25:11;8.60;99.90
68139;DHT22;54940;50.842;4.410;2023-11-18T08:27:39;8.60;99.90
68139;DHT22;54940;50.842;4.410;2023-11-18T08:30:06;8.60;99.90
68139;DHT22;54940;50.842;4.410;2023-11-18T08:32:37;8.60;99.90
68139;DHT22;54940;50.842;4.410;2023-11-18T08:35:06;8.60;99.90
68139;DHT22;54940;50.842;4.410;2023-11-18T08:37:36;8.70;99.90
68139;DHT22;54940;50.842;4.410;2023-11-18T08:40:06;8.60;99.90
68139;DHT22;54940;50.842;4.410;2023-11-18T08:42:33;8.70;99.90
68139;DHT22;54940;50.842;4.410;2023-11-18T08:45:00;8.70;99.90
68139;DHT22;54940;50.842;4.410;2023-11-18T08:47:27;8.70;99.90
68139;DHT22;54940;50.842;4.410;2023-11-18T08:49:52;8.70;99.90
68139;DHT22;54940;50.842;4.410;2023-11-18T08:52:18;8.70;99.90
68139;DHT22;54940;50.842;4.410;2023-11-18T08:54:44;8.80;99.90
68139;DHT22;54940;50.842;4.410;2023-11-18T08:57:28;8.70;99.90
68139;DHT22;54940;50.842;4.410;2023-11-18T09:00:05;8.70;99.90
68139;DHT22;54940;50.842;4.410;2023-11-18T09:02:51;8.70;99.90
68139;DHT22;54940;50.842;4.410;2023-11-18T09:05:18;8.70;99.90
68139;DHT22;54940;50.842;4.410;2023-11-18T09:07:45;8.70;99.90
68139;DHT22;54940;50.842;4.410;2023-11-18T09:10:13;8.80;99.90
68139;DHT22;54940;50.842;4.410;2023-11-18T09:12:39;8.80;99.90
68139;DHT22;54940;50.842;4.410;2023-11-18T09:15:07;8.80;99.90
68139;DHT22;54940;50.842;4.410;2023-11-18T09:17:33;8.80;99.90
68139;DHT22;54940;50.842;4.410;2023-11-18T09:19:59;8.80;99.90
68139;DHT22;54940;50.842;4.410;2023-11-18T09:22:24;8.80;99.90
68139;DHT22;54940;50.842;4.410;2023-11-18T09:24:50;8.80;99.90
68139;DHT22;54940;50.842;4.410;2023-11-18T09:27:16;8.90;99.90
68139;DHT22;54940;50.842;4.410;2023-11-18T09:29:42;8.90;99.90
68139;DHT22;54940;50.842;4.410;2023-11-18T09:32:10;8.90;99.90
68139;DHT22;54940;50.842;4.410;2023-11-18T09:34:40;8.90;99.90
68139;DHT22;54940;50.842;4.410;2023-11-18T09:37:05;8.90;99.90
68139;DHT22;54940;50.842;4.410;2023-11-18T09:39:35;8.90;99.90
68139;DHT22;54940;50.842;4.410;2023-11-18T09:42:06;8.90;99.90
68139;DHT22;54940;50.842;4.410;2023-11-18T09:44:35;9.00;99.90
68139;DHT22;54940;50.842;4.410;2023-11-18T09:47:07;8.90;99.90
68139;DHT22;54940;50.842;4.410;2023-11-18T09:49:44;9.00;99.90
68139;DHT22;54940;50.842;4.410;2023-11-18T09:52:10;9.00;99.90
68139;DHT22;54940;50.842;4.410;2023-11-18T09:54:53;9.00;99.90
68139;DHT22;54940;50.842;4.410;2023-11-18T09:57:32;8.90;99.90
68139;DHT22;54940;50.842;4.410;2023-11-18T10:00:07;9.00;99.90
68139;DHT22;54940;50.842;4.410;2023-11-18T10:02:54;9.00;99.90
68139;DHT22;54940;50.842;4.410;2023-11-18T10:05:23;9.10;99.90
68139;DHT22;54940;50.842;4.410;2023-11-18T10:07:52;9.00;99.90
68139;DHT22;54940;50.842;4.410;2023-11-18T10:10:17;9.00;99.90
68139;DHT22;54940;50.842;4.410;2023-11-18T10:12:47;9.10;99.90
68139;DHT22;54940;50.842;4.410;2023-11-18T10:15:33;9.10;99.90
68139;DHT22;54940;50.842;4.410;2023-11-18T10:18:00;9.10;99.90
68139;DHT22;54940;50.842;4.410;2023-11-18T10:20:48;9.10;99.90
68139;DHT22;54940;50.842;4.410;2023-11-18T10:23:19;9.20;99.90
68139;DHT22;54940;50.842;4.410;2023-11-18T10:25:47;9.20;99.90
68139;DHT22;54940;50.842;4.410;2023-11-18T10:28:26;9.10;99.90
68139;DHT22;54940;50.842;4.410;2023-11-18T10:30:59;9.10;99.90
68139;DHT22;54940;50.842;4.410;2023-11-18T10:33:40;9.20;99.90
68139;DHT22;54940;50.842;4.410;2023-11-18T10:36:29;9.20;99.90
68139;DHT22;54940;50.842;4.410;2023-11-18T10:38:58;9.20;99.90
68139;DHT22;54940;50.842;4.410;2023-11-18T10:41:26;9.30;99.90
68139;DHT22;54940;50.842;4.410;2023-11-18T10:44:06;9.20;99.90
68139;DHT22;54940;50.842;4.410;2023-11-18T10:46:50;9.20;99.90
68139;DHT22;54940;50.842;4.410;2023-11-18T10:49:19;9.20;99.90
68139;DHT22;54940;50.842;4.410;2023-11-18T10:51:46;9.20;99.90
68139;DHT22;54940;50.842;4.410;2023-11-18T10:54:13;9.20;99.90
68139;DHT22;54940;50.842;4.410;2023-11-18T10:56:48;9.20;99.90
68139;DHT22;54940;50.842;4.410;2023-11-18T10:59:15;9.10;99.90
68139;DHT22;54940;50.842;4.410;2023-11-18T11:01:42;9.10;99.90
68139;DHT22;54940;50.842;4.410;2023-11-18T11:04:12;9.10;99.90
68139;DHT22;54940;50.842;4.410;2023-11-18T11:06:49;9.10;99.90
68139;DHT22;54940;50.842;4.410;2023-11-18T11:09:19;9.20;99.90
68139;DHT22;54940;50.842;4.410;2023-11-18T11:14:21;9.20;99.90
68139;DHT22;54940;50.842;4.410;2023-11-18T11:16:55;9.20;99.90
68139;DHT22;54940;50.842;4.410;2023-11-18T11:19:24;9.20;99.90
68139;DHT22;54940;50.842;4.410;2023-11-18T11:22:11;9.20;99.90
68139;DHT22;54940;50.842;4.410;2023-11-18T11:25:14;9.20;99.90
68139;DHT22;54940;50.842;4.410;2023-11-18T11:27:55;9.20;99.90
68139;DHT22;54940;50.842;4.410;2023-11-18T11:30:38;9.30;99.90
68139;DHT22;54940;50.842;4.410;2023-11-18T11:35:36;9.30;99.90
68139;DHT22;54940;50.842;4.410;2023-11-18T11:38:03;9.30;99.90
68139;DHT22;54940;50.842;4.410;2023-11-18T11:40:37;9.30;99.90
68139;DHT22;54940;50.842;4.410;2023-11-18T11:43:06;9.40;99.90
68139;DHT22;54940;50.842;4.410;2023-11-18T11:45:35;9.40;99.90
68139;DHT22;54940;50.842;4.410;2023-11-18T11:48:06;9.30;99.90
68139;DHT22;54940;50.842;4.410;2023-11-18T11:53:44;9.30;99.90
68139;DHT22;54940;50.842;4.410;2023-11-18T11:56:14;9.30;99.90
68139;DHT22;54940;50.842;4.410;2023-11-18T11:58:46;9.30;99.90
68139;DHT22;54940;50.842;4.410;2023-11-18T12:01:26;9.40;99.90
68139;DHT22;54940;50.842;4.410;2023-11-18T12:04:02;9.40;99.90
68139;DHT22;54940;50.842;4.410;2023-11-18T12:06:41;9.50;99.90
68139;DHT22;54940;50.842;4.410;2023-11-18T12:09:09;9.50;99.90
68139;DHT22;54940;50.842;4.410;2023-11-18T12:11:42;9.50;99.90
68139;DHT22;54940;50.842;4.410;2023-11-18T12:14:11;9.50;99.90
68139;DHT22;54940;50.842;4.410;2023-11-18T12:17:04;9.40;99.90
68139;DHT22;54940;50.842;4.410;2023-11-18T12:19:42;9.30;99.90
68139;DHT22;54940;50.842;4.410;2023-11-18T12:22:20;9.30;99.90
68139;DHT22;54940;50.842;4.410;2023-11-18T12:32:59;9.50;99.90
68139;DHT22;54940;50.842;4.410;2023-11-18T12:41:34;9.40;99.90
68139;DHT22;54940;50.842;4.410;2023-11-18T12:44:28;9.50;99.90
68139;DHT22;54940;50.842;4.410;2023-11-18T12:47:04;9.60;99.90
68139;DHT22;54940;50.842;4.410;2023-11-18T12:49:44;9.60;99.90
68139;DHT22;54940;50.842;4.410;2023-11-18T12:52:15;9.60;99.90
68139;DHT22;54940;50.842;4.410;2023-11-18T12:54:44;9.60;99.90
68139;DHT22;54940;50.842;4.410;2023-11-18T12:57:22;9.60;99.90
68139;DHT22;54940;50.842;4.410;2023-11-18T12:59:51;9.60;99.90
68139;DHT22;54940;50.842;4.410;2023-11-18T13:02:17;9.60;99.90
68139;DHT22;54940;50.842;4.410;2023-11-18T13:04:46;9.60;99.90
68139;DHT22;54940;50.842;4.410;2023-11-18T13:07:18;9.60;99.90
68139;DHT22;54940;50.842;4.410;2023-11-18T13:09:44;9.50;99.90
68139;DHT22;54940;50.842;4.410;2023-11-18T13:12:11;9.50;99.90
68139;DHT22;54940;50.842;4.410;2023-11-18T13:14:41;9.60;99.90
68139;DHT22;54940;50.842;4.410;2023-11-18T13:17:12;9.60;99.90
68139;DHT22;54940;50.842;4.410;2023-11-18T13:19:38;9.50;99.90
68139;DHT22;54940;50.842;4.410;2023-11-18T13:22:06;9.60;99.90
68139;DHT22;54940;50.842;4.410;2023-11-18T13:24:35;9.60;99.90
68139;DHT22;54940;50.842;4.410;2023-11-18T13:27:02;9.60;99.90
68139;DHT22;54940;50.842;4.410;2023-11-18T13:29:32;9.60;99.90
68139;DHT22;54940;50.842;4.410;2023-11-18T13:32:00;9.60;99.90
68139;DHT22;54940;50.842;4.410;2023-11-18T13:34:33;9.70;99.90
68139;DHT22;54940;50.842;4.410;2023-11-18T13:37:01;9.70;99.90
68139;DHT22;54940;50.842;4.410;2023-11-18T13:39:27;9.60;99.90
68139;DHT22;54940;50.842;4.410;2023-11-18T13:41:57;9.70;99.90
68139;DHT22;54940;50.842;4.410;2023-11-18T13:44:36;9.80;99.90
68139;DHT22;54940;50.842;4.410;2023-11-18T13:47:07;9.70;99.90
68139;DHT22;54940;50.842;4.410;2023-11-18T13:49:33;9.80;99.90
68139;DHT22;54940;50.842;4.410;2023-11-18T13:52:00;9.70;99.90
68139;DHT22;54940;50.842;4.410;2023-11-18T13:54:30;9.80;99.90
68139;DHT22;54940;50.842;4.410;2023-11-18T13:56:58;9.80;99.90
68139;DHT22;54940;50.842;4.410;2023-11-18T13:59:25;9.90;99.90
68139;DHT22;54940;50.842;4.410;2023-11-18T14:01:53;9.80;99.90
68139;DHT22;54940;50.842;4.410;2023-11-18T14:04:23;9.90;99.90
68139;DHT22;54940;50.842;4.410;2023-11-18T14:06:52;9.80;99.90
68139;DHT22;54940;50.842;4.410;2023-11-18T14:09:19;9.80;99.90
68139;DHT22;54940;50.842;4.410;2023-11-18T14:11:47;9.80;99.90
68139;DHT22;54940;50.842;4.410;2023-11-18T14:14:14;9.90;99.90
68139;DHT22;54940;50.842;4.410;2023-11-18T14:16:39;9.90;99.90
68139;DHT22;54940;50.842;4.410;2023-11-18T14:19:06;10.00;99.90
68139;DHT22;54940;50.842;4.410;2023-11-18T14:21:32;10.00;99.90
68139;DHT22;54940;50.842;4.410;2023-11-18T14:23:57;10.00;99.90
68139;DHT22;54940;50.842;4.410;2023-11-18T14:26:28;10.00;99.90
68139;DHT22;54940;50.842;4.410;2023-11-18T14:28:57;10.00;99.90
68139;DHT22;54940;50.842;4.410;2023-11-18T14:31:24;10.00;99.90
68139;DHT22;54940;50.842;4.410;2023-11-18T14:33:54;10.00;99.90
68139;DHT22;54940;50.842;4.410;2023-11-18T14:36:24;10.00;99.90
68139;DHT22;54940;50.842;4.410;2023-11-18T14:38:50;10.00;99.90
68139;DHT22;54940;50.842;4.410;2023-11-18T14:41:16;10.00;99.90
68139;DHT22;54940;50.842;4.410;2023-11-18T14:43:42;10.10;99.90
68139;DHT22;54940;50.842;4.410;2023-11-18T14:46:08;10.10;99.90
68139;DHT22;54940;50.842;4.410;2023-11-18T14:48:34;10.10;99.90
68139;DHT22;54940;50.842;4.410;2023-11-18T14:50:59;10.10;99.90
68139;DHT22;54940;50.842;4.410;2023-11-18T14:53:26;10.10;99.90
68139;DHT22;54940;50.842;4.410;2023-11-18T14:55:53;10.20;99.90
68139;DHT22;54940;50.842;4.410;2023-11-18T14:58:21;10.20;99.90
68139;DHT22;54940;50.842;4.410;2023-11-18T15:00:47;10.10;99.90
68139;DHT22;54940;50.842;4.410;2023-11-18T15:03:13;10.20;99.90
68139;DHT22;54940;50.842;4.410;2023-11-18T15:05:38;10.20;99.90
68139;DHT22;54940;50.842;4.410;2023-11-18T15:08:04;10.30;99.90
68139;DHT22;54940;50.842;4.410;2023-11-18T15:10:34;10.20;99.90
68139;DHT22;54940;50.842;4.410;2023-11-18T15:13:02;10.20;99.90
68139;DHT22;54940;50.842;4.410;2023-11-18T15:15:32;10.20;99.90
68139;DHT22;54940;50.842;4.410;2023-11-18T15:18:07;10.20;99.90
68139;DHT22;54940;50.842;4.410;2023-11-18T15:20:40;10.30;99.90
68139;DHT22;54940;50.842;4.410;2023-11-18T15:23:11;10.30;99.90
68139;DHT22;54940;50.842;4.410;2023-11-18T15:25:38;10.30;99.90
68139;DHT22;54940;50.842;4.410;2023-11-18T15:28:05;10.30;99.90
68139;DHT22;54940;50.842;4.410;2023-11-18T15:30:38;10.40;99.90
68139;DHT22;54940;50.842;4.410;2023-11-18T15:33:05;10.40;99.90
68139;DHT22;54940;50.842;4.410;2023-11-18T15:35:34;10.40;99.90
68139;DHT22;54940;50.842;4.410;2023-11-18T15:38:03;10.40;99.90
68139;DHT22;54940;50.842;4.410;2023-11-18T15:40:31;10.50;99.90
68139;DHT22;54940;50.842;4.410;2023-11-18T15:42:56;10.40;99.90
68139;DHT22;54940;50.842;4.410;2023-11-18T15:45:23;10.50;99.90
68139;DHT22;54940;50.842;4.410;2023-11-18T15:47:50;10.50;99.90
68139;DHT22;54940;50.842;4.410;2023-11-18T15:50:16;10.50;99.90
68139;DHT22;54940;50.842;4.410;2023-11-18T15:52:47;10.50;99.90
68139;DHT22;54940;50.842;4.410;2023-11-18T15:55:14;10.60;99.90
68139;DHT22;54940;50.842;4.410;2023-11-18T15:57:41;10.60;99.90
68139;DHT22;54940;50.842;4.410;2023-11-18T16:00:09;10.60;99.90
68139;DHT22;54940;50.842;4.410;2023-11-18T16:02:41;10.60;99.90
68139;DHT22;54940;50.842;4.410;2023-11-18T16:05:08;10.70;99.90
68139;DHT22;54940;50.842;4.410;2023-11-18T16:07:34;10.70;99.90
68139;DHT22;54940;50.842;4.410;2023-11-18T16:10:00;10.70;99.90
68139;DHT22;54940;50.842;4.410;2023-11-18T16:12:26;10.80;99.90
68139;DHT22;54940;50.842;4.410;2023-11-18T16:14:55;10.80;99.90
68139;DHT22;54940;50.842;4.410;2023-11-18T16:17:22;10.80;99.90
68139;DHT22;54940;50.842;4.410;2023-11-18T16:19:47;10.80;99.90
68139;DHT22;54940;50.842;4.410;2023-11-18T16:22:13;10.70;99.90